Monday, September 22, 2014, 12:12 PM EDT

KUNV, State College, University Park Airport

Location: State College, PA, United States Lat: 40.85
Local Time: 12:12 PM EDT (16:12 GMT) Lon: -77.85
Time Zone: US/Eastern Elev: 1240 ft

Show me the last for .
Show Decoded

2014-09-22 11:53 METAR KUNV 221553Z 30010KT 10SM SCT023 BKN031 OVC037 12/07 A3007 =
2014-09-22 10:53 METAR KUNV 221453Z 31009KT 10SM BKN030 OVC040 12/08 A3005 =
2014-09-22 09:53 METAR KUNV 221353Z 31005KT 10SM BKN035 13/07 A3003 =
2014-09-22 08:53 METAR KUNV 221253Z 31010G15KT 10SM BKN040 11/07 A3001 =
2014-09-22 06:53 METAR KUNV 221053Z 33014G17KT 10SM BKN038 11/06 A2993 =
2014-09-22 05:53 METAR KUNV 220953Z 29012G19KT 10SM BKN029 OVC038 12/07 A2990 =
2014-09-22 05:35 METAR KUNV 220935Z AUTO 27011G14KT 10SM BKN027 BKN031 OVC038 12/08 A2989 RMK AO2
                 T01220077 =
2014-09-22 05:15 METAR KUNV 220915Z AUTO 28009KT 10SM BKN027 OVC033 13/09 A2988 RMK AO2 T01250085
                 =
2014-09-22 04:55 METAR KUNV 220855Z AUTO 29004KT 10SM BKN027 BKN033 BKN038 13/08 A2986 RMK AO2
                 T01260084 =
2014-09-22 04:35 METAR KUNV 220835Z AUTO 29010G17KT 10SM BKN025 OVC031 13/09 A2985 RMK AO2
                 T01310090 =
2014-09-22 04:15 METAR KUNV 220815Z AUTO 30010G15KT 10SM BKN025 OVC030 14/09 A2984 RMK AO2
                 T01350090 =
2014-09-22 03:55 METAR KUNV 220755Z AUTO 30005KT 10SM BKN025 OVC030 14/09 A2982 RMK AO2 T01350092
                 =
2014-09-22 03:35 METAR KUNV 220735Z AUTO 28009KT 10SM BKN028 OVC035 14/09 A2982 RMK AO2 T01350093
                 =
2014-09-22 03:15 METAR KUNV 220715Z AUTO 27009KT 10SM BKN030 14/09 A2981 RMK AO2 T01350091 =
2014-09-22 02:55 METAR KUNV 220655Z AUTO 27009KT 10SM SCT024 BKN030 OVC036 14/10 A2981 RMK AO2
                 T01390095 =
2014-09-22 02:35 METAR KUNV 220635Z AUTO 28011G18KT 10SM BKN030 BKN035 14/10 A2981 RMK AO2
                 T01410095 =
2014-09-22 02:15 METAR KUNV 220615Z AUTO 28017G22KT 10SM BKN032 BKN040 15/09 A2980 RMK AO2
                 T01450094 =
2014-09-22 01:55 METAR KUNV 220555Z AUTO 27013KT 10SM OVC035 15/09 A2981 RMK AO2 T01470094 10191
                 20147 =
2014-09-22 01:35 METAR KUNV 220535Z AUTO 28011KT 10SM BKN035 OVC042 15/09 A2981 RMK AO2 T01500091
                 =
2014-09-22 01:15 METAR KUNV 220515Z AUTO 26018G22KT 10SM SCT034 OVC041 15/09 A2980 RMK AO2
                 T01540093 =
2014-09-22 00:55 METAR KUNV 220455Z AUTO 27009G15KT 10SM BKN036 OVC042 16/10 A2979 RMK AO2
                 T01570103 =
2014-09-22 00:35 METAR KUNV 220435Z AUTO 25010G16KT 10SM BKN040 OVC047 16/11 A2979 RMK AO2
                 T01570105 =
2014-09-22 00:15 METAR KUNV 220415Z AUTO 26012G18KT 10SM SCT042 BKN050 16/11 A2978 RMK AO2
                 T01610105 =
2014-09-21 23:55 METAR KUNV 220355Z AUTO 26012G18KT 10SM CLR 16/11 A2978 RMK AO2 T01570105
                 402550139 =
2014-09-21 23:35 METAR KUNV 220335Z AUTO 27009G15KT 10SM CLR 16/11 A2978 RMK AO2 T01600111 =
2014-09-21 23:15 METAR KUNV 220315Z AUTO 27006KT 10SM CLR 16/12 A2977 RMK AO2 T01610115 =
2014-09-21 22:55 METAR KUNV 220255Z AUTO 28007G14KT 10SM CLR 17/12 A2976 RMK AO2 T01660115 =
2014-09-21 22:35 METAR KUNV 220235Z AUTO 28007KT 10SM CLR 17/12 A2976 RMK AO2 T01670117 =
2014-09-21 22:15 METAR KUNV 220215Z AUTO 28008KT 10SM CLR 17/12 A2975 RMK AO2 T01700119 =
2014-09-21 21:55 METAR KUNV 220155Z AUTO 29009G14KT 10SM CLR 18/13 A2974 RMK AO2 T01770125 =
2014-09-21 20:53 METAR KUNV 220053Z 26009KT 10SM SKC 19/15 A2971 =
2014-09-21 19:53 METAR KUNV 212353Z 21006KT 10SM SCT035 BKN100 18/16 A2967 =
2014-09-21 18:53 METAR KUNV 212253Z 22007KT 10SM SCT018 SCT038 BKN110 19/16 A2967 =
2014-09-21 17:53 METAR KUNV 212153Z 22012KT 10SM BKN065 BKN100 23/16 A2965 =
2014-09-21 16:53 METAR KUNV 212053Z 23012G17KT 10SM SCT050 SCT060 SCT110 25/16 A2964 =
2014-09-21 15:53 METAR KUNV 211953Z 23010G14KT 10SM SCT040 25/18 A2965 =
2014-09-21 14:53 METAR KUNV 211853Z 22009KT 10SM SCT037 SCT070 23/20 A2969 =
2014-09-21 13:53 METAR KUNV 211753Z 24006KT 10SM BKN030 OVC042 23/18 A2971 =
2014-09-21 12:53 METAR KUNV 211653Z 22010KT 10SM BKN033 23/18 A2975 =

Support USWX by starting your Amazon purchase here.